createdAt,value
2022-08-20T00:02:10.059Z,28.97
2022-08-20T00:04:37.030Z,28.10
2022-08-20T00:07:06.641Z,28.50
2022-08-20T00:09:36.487Z,27.87
2022-08-20T00:12:04.566Z,23.63
2022-08-20T00:14:31.243Z,23.60
2022-08-20T00:17:00.758Z,24.87
2022-08-20T00:19:27.549Z,27.20
2022-08-20T00:21:56.446Z,28.47
2022-08-20T00:24:25.337Z,26.57
2022-08-20T00:26:52.753Z,28.50
2022-08-20T00:29:20.216Z,24.67
2022-08-20T00:31:47.277Z,29.20
2022-08-20T00:34:13.891Z,25.30
2022-08-20T00:36:40.522Z,24.60
2022-08-20T00:39:07.121Z,23.60
2022-08-20T00:41:33.732Z,25.17
2022-08-20T00:44:07.004Z,22.53
2022-08-20T00:46:34.254Z,20.00
2022-08-20T00:49:02.938Z,18.33
2022-08-20T00:51:35.933Z,21.60
2022-08-20T00:54:10.953Z,26.17
2022-08-20T00:56:39.071Z,25.67
2022-08-20T00:59:11.210Z,27.07
2022-08-20T01:01:55.861Z,25.03
2022-08-20T01:04:25.120Z,22.03
2022-08-20T01:06:52.304Z,23.00
2022-08-20T01:09:49.858Z,24.37
2022-08-20T01:12:06.648Z,22.73
2022-08-20T01:14:44.722Z,22.30
2022-08-20T01:17:15.918Z,26.07
2022-08-20T01:19:44.511Z,26.40
2022-08-20T01:22:32.158Z,25.57
2022-08-20T01:25:04.656Z,27.67
2022-08-20T01:27:31.928Z,27.50
2022-08-20T01:30:06.205Z,27.83
2022-08-20T01:32:33.751Z,26.83
2022-08-20T01:35:00.564Z,27.07
2022-08-20T01:37:28.668Z,30.10
2022-08-20T01:39:58.643Z,29.07
2022-08-20T01:42:36.204Z,27.60
2022-08-20T01:45:03.770Z,23.93
2022-08-20T01:47:38.289Z,24.33
2022-08-20T01:50:16.373Z,24.40
2022-08-20T01:52:48.109Z,27.10
2022-08-20T01:55:14.802Z,27.37
2022-08-20T01:57:41.454Z,29.00
2022-08-20T02:00:10.982Z,26.07
2022-08-20T02:02:47.470Z,26.80
2022-08-20T02:05:14.187Z,25.60
2022-08-20T02:07:40.889Z,25.67
2022-08-20T02:10:09.345Z,23.60
2022-08-20T02:12:35.960Z,27.00
2022-08-20T02:15:03.076Z,27.27
2022-08-20T02:17:30.316Z,25.40
2022-08-20T02:20:17.140Z,24.43
2022-08-20T02:22:49.806Z,26.30
2022-08-20T02:25:18.498Z,27.53
2022-08-20T02:27:46.340Z,27.80
2022-08-20T02:30:21.223Z,27.73
2022-08-20T02:32:56.244Z,28.57
2022-08-20T02:35:24.229Z,29.63
2022-08-20T02:37:50.979Z,26.37
2022-08-20T02:40:18.567Z,30.20
2022-08-20T02:42:56.979Z,29.20
2022-08-20T02:45:23.631Z,30.03
2022-08-20T02:47:52.623Z,30.83
2022-08-20T02:50:20.213Z,29.93
2022-08-20T02:52:51.780Z,32.43
2022-08-20T02:55:25.989Z,30.60
2022-08-20T02:57:59.878Z,31.00
2022-08-20T03:00:27.927Z,33.43
2022-08-20T03:02:54.973Z,32.03
2022-08-20T03:05:21.581Z,35.10
2022-08-20T03:07:49.680Z,36.17
2022-08-20T03:10:16.689Z,35.63
2022-08-20T03:12:43.290Z,34.87
2022-08-20T03:15:17.582Z,34.07
2022-08-20T03:17:45.085Z,34.30
2022-08-20T03:20:12.484Z,33.27
2022-08-20T03:22:39.254Z,35.00
2022-08-20T03:25:06.896Z,37.40
2022-08-20T03:27:36.212Z,35.63
2022-08-20T03:30:05.301Z,39.23
2022-08-20T03:32:31.936Z,36.70
2022-08-20T03:34:58.542Z,39.60
2022-08-20T03:37:25.385Z,36.90
2022-08-20T03:39:52.157Z,35.03
2022-08-20T03:42:18.748Z,37.63
2022-08-20T03:44:45.362Z,36.90
2022-08-20T03:47:12.081Z,40.33
2022-08-20T03:49:38.860Z,40.33
2022-08-20T03:52:06.024Z,39.40
2022-08-20T03:54:32.859Z,38.70
2022-08-20T03:57:00.564Z,44.90
2022-08-20T03:59:27.203Z,40.53
2022-08-20T04:01:54.981Z,41.17
2022-08-20T04:04:22.175Z,46.57
2022-08-20T04:06:48.818Z,43.20
2022-08-20T04:09:15.479Z,42.50
2022-08-20T04:11:42.344Z,47.47
2022-08-20T04:14:11.157Z,42.87
2022-08-20T04:16:38.352Z,42.73
2022-08-20T04:19:07.444Z,41.97
2022-08-20T04:21:35.296Z,45.47
2022-08-20T04:24:03.445Z,47.20
2022-08-20T04:26:30.731Z,45.63
2022-08-20T04:28:57.557Z,46.63
2022-08-20T04:31:33.703Z,44.30
2022-08-20T04:34:02.193Z,44.30
2022-08-20T04:36:29.444Z,40.47
2022-08-20T04:38:56.419Z,43.80
2022-08-20T04:41:24.300Z,39.83
2022-08-20T04:43:52.086Z,41.50
2022-08-20T04:46:19.429Z,38.83
2022-08-20T04:48:50.114Z,42.30
2022-08-20T04:51:17.995Z,39.10
2022-08-20T04:53:45.279Z,39.50
2022-08-20T04:56:23.354Z,36.43
2022-08-20T04:58:51.488Z,39.27
2022-08-20T05:01:18.603Z,41.40
2022-08-20T05:03:47.973Z,42.00
2022-08-20T05:06:16.294Z,38.90
2022-08-20T05:08:44.015Z,39.40
2022-08-20T05:11:34.449Z,38.57
2022-08-20T05:13:58.107Z,39.33
2022-08-20T05:16:25.131Z,34.30
2022-08-20T05:18:53.013Z,35.83
2022-08-20T05:21:20.562Z,34.93
2022-08-20T05:23:47.834Z,36.60
2022-08-20T05:26:20.341Z,35.97
2022-08-20T05:28:58.774Z,34.90
2022-08-20T05:31:32.230Z,38.20
2022-08-20T05:34:00.903Z,39.73
2022-08-20T05:36:27.672Z,35.50
2022-08-20T05:38:54.762Z,37.00
2022-08-20T05:41:29.125Z,34.80
2022-08-20T05:44:01.555Z,36.90
2022-08-20T05:46:30.538Z,32.37
2022-08-20T05:48:59.546Z,32.90
2022-08-20T05:51:29.821Z,32.23
2022-08-20T05:53:59.222Z,34.47
2022-08-20T05:56:27.312Z,33.40
2022-08-20T05:58:57.556Z,30.53
2022-08-20T06:01:24.443Z,30.50
2022-08-20T06:04:09.950Z,33.80
2022-08-20T06:06:45.892Z,30.63
2022-08-20T06:09:16.254Z,32.37
2022-08-20T06:11:46.229Z,33.17
2022-08-20T06:14:13.037Z,28.97
2022-08-20T06:16:39.757Z,30.90
2022-08-20T06:19:33.349Z,31.57
2022-08-20T06:22:08.712Z,33.50
2022-08-20T06:24:47.174Z,33.70
2022-08-20T06:27:15.251Z,31.00
2022-08-20T06:29:44.848Z,32.67
2022-08-20T06:32:11.571Z,33.53
2022-08-20T06:34:38.297Z,35.30
2022-08-20T06:37:23.351Z,33.20
2022-08-20T06:40:03.817Z,31.63
2022-08-20T06:42:30.695Z,32.27
2022-08-20T06:44:59.556Z,31.00
2022-08-20T06:47:26.386Z,33.70
2022-08-20T06:49:53.215Z,33.10
2022-08-20T06:52:20.169Z,32.50
2022-08-20T06:55:03.609Z,29.03
2022-08-20T06:57:30.563Z,32.43
2022-08-20T06:59:58.472Z,30.87
2022-08-20T07:02:30.181Z,29.13
2022-08-20T07:04:57.387Z,32.83
2022-08-20T07:07:24.141Z,32.13
2022-08-20T07:09:58.494Z,28.73
2022-08-20T07:12:25.523Z,34.10
2022-08-20T07:14:52.229Z,32.90
2022-08-20T07:17:18.949Z,30.60
2022-08-20T07:19:45.670Z,28.70
2022-08-20T07:22:14.805Z,29.37
2022-08-20T07:24:44.041Z,28.23
2022-08-20T07:27:16.780Z,30.77
2022-08-20T07:30:02.348Z,34.10
2022-08-20T07:32:36.923Z,36.20
2022-08-20T07:35:13.374Z,31.83
2022-08-20T07:37:42.053Z,31.27
2022-08-20T07:40:11.444Z,33.33
2022-08-20T07:42:39.318Z,32.30
2022-08-20T07:45:10.865Z,30.10
2022-08-20T07:47:39.207Z,31.90
2022-08-20T07:50:06.840Z,30.30
2022-08-20T07:52:36.789Z,31.83
2022-08-20T07:55:15.430Z,31.50
2022-08-20T07:57:46.124Z,27.93
2022-08-20T08:00:13.729Z,27.83
2022-08-20T08:02:40.655Z,31.90
2022-08-20T08:05:13.206Z,30.10
2022-08-20T08:07:40.804Z,28.60
2022-08-20T08:10:10.979Z,29.33
2022-08-20T08:12:43.742Z,28.53
2022-08-20T08:15:14.968Z,25.20
2022-08-20T08:17:42.309Z,27.30
2022-08-20T08:20:09.412Z,27.47
2022-08-20T08:22:36.224Z,27.60
2022-08-20T08:25:03.222Z,24.13
2022-08-20T08:27:33.514Z,25.40
2022-08-20T08:33:11.778Z,27.60
2022-08-20T08:35:39.334Z,26.47
2022-08-20T08:38:08.105Z,23.37
2022-08-20T08:40:41.869Z,24.53
2022-08-20T08:43:12.075Z,25.47
2022-08-20T08:45:43.832Z,25.87
2022-08-20T08:48:18.394Z,23.17
2022-08-20T08:50:53.298Z,21.50
2022-08-20T08:53:47.607Z,22.97
2022-08-20T08:56:15.340Z,20.93
2022-08-20T08:58:42.862Z,23.00
2022-08-20T09:01:55.096Z,22.10
2022-08-20T09:04:04.294Z,21.30
2022-08-20T09:06:31.104Z,25.00
2022-08-20T09:09:02.676Z,19.83
2022-08-20T09:11:31.105Z,23.07
2022-08-20T09:13:58.616Z,20.27
2022-08-20T09:16:28.051Z,21.50
2022-08-20T09:19:06.900Z,20.43
2022-08-20T09:21:34.219Z,20.83
2022-08-20T09:24:00.972Z,20.87
2022-08-20T09:26:40.683Z,21.83
2022-08-20T09:29:09.879Z,19.17
2022-08-20T09:31:40.477Z,21.87
2022-08-20T09:34:21.942Z,18.20
2022-08-20T09:36:48.618Z,19.27
2022-08-20T09:39:16.023Z,19.43
2022-08-20T09:41:46.167Z,17.80
2022-08-20T09:44:15.321Z,19.80
2022-08-20T09:46:48.783Z,18.90
2022-08-20T09:49:18.048Z,16.60
2022-08-20T09:52:17.975Z,19.17
2022-08-20T09:54:46.310Z,19.67
2022-08-20T09:57:15.385Z,24.97
2022-08-20T09:59:47.328Z,20.50
2022-08-20T10:02:15.389Z,21.40
2022-08-20T10:04:42.125Z,21.10
2022-08-20T10:07:08.882Z,21.30
2022-08-20T10:09:37.384Z,20.47
2022-08-20T10:12:08.385Z,19.73
2022-08-20T10:14:35.189Z,18.57
2022-08-20T10:17:03.258Z,20.43
2022-08-20T10:19:30.533Z,21.53
2022-08-20T10:21:57.948Z,18.83
2022-08-20T10:24:24.860Z,20.83
2022-08-20T10:26:54.407Z,18.77
2022-08-20T10:29:22.475Z,17.10
2022-08-20T10:31:53.701Z,20.03
2022-08-20T10:34:20.510Z,19.43
2022-08-20T10:36:47.525Z,21.53
2022-08-20T10:39:14.941Z,23.17
2022-08-20T10:41:45.018Z,22.00
2022-08-20T10:44:11.804Z,20.23
2022-08-20T10:46:39.634Z,18.50
2022-08-20T10:49:07.528Z,21.97
2022-08-20T10:51:36.533Z,21.37
2022-08-20T10:54:05.372Z,22.40
2022-08-20T10:56:34.965Z,19.50
2022-08-20T10:59:01.701Z,17.57
2022-08-20T11:01:31.409Z,19.27
2022-08-20T11:03:58.490Z,20.33
2022-08-20T11:06:25.313Z,20.60
2022-08-20T11:08:52.011Z,18.87
2022-08-20T11:11:19.600Z,19.00
2022-08-20T11:13:46.272Z,16.40
2022-08-20T11:16:13.280Z,17.17
2022-08-20T11:18:43.691Z,14.87
2022-08-20T11:21:13.027Z,13.40
2022-08-20T11:23:39.799Z,14.03
2022-08-20T11:26:06.537Z,12.10
2022-08-20T11:28:33.355Z,11.50
2022-08-20T11:31:00.662Z,10.77
2022-08-20T11:33:27.491Z,12.37
2022-08-20T11:35:54.211Z,11.47
2022-08-20T11:38:26.019Z,14.10
2022-08-20T11:40:52.706Z,10.60
2022-08-20T11:43:19.598Z,11.23
2022-08-20T11:45:48.005Z,12.50
2022-08-20T11:48:15.000Z,10.13
2022-08-20T11:51:04.944Z,9.27
2022-08-20T11:53:34.416Z,9.23
2022-08-20T11:56:05.017Z,10.50
2022-08-20T11:58:33.914Z,10.10
2022-08-20T12:01:00.560Z,9.97
2022-08-20T12:03:29.144Z,9.03
2022-08-20T12:05:57.956Z,7.20
2022-08-20T12:08:27.943Z,6.67
2022-08-20T12:11:04.269Z,7.40
2022-08-20T12:13:48.400Z,6.63
2022-08-20T12:16:21.432Z,7.50
2022-08-20T12:18:50.593Z,7.90
2022-08-20T12:21:17.436Z,6.70
2022-08-20T12:23:55.029Z,6.70
2022-08-20T12:26:26.113Z,6.30
2022-08-20T12:28:55.615Z,6.80
2022-08-20T12:31:34.007Z,5.40
2022-08-20T12:34:03.401Z,5.93
2022-08-20T12:37:05.618Z,5.97
2022-08-20T12:40:13.079Z,5.03
2022-08-20T12:43:13.784Z,5.23
2022-08-20T12:45:49.847Z,4.53
2022-08-20T12:49:16.464Z,5.07
2022-08-20T12:51:47.659Z,4.43
2022-08-20T12:54:39.223Z,3.53
2022-08-20T12:57:08.013Z,2.70
2022-08-20T13:06:00.846Z,3.90
2022-08-20T13:09:06.818Z,3.23
2022-08-20T13:11:39.809Z,2.43
2022-08-20T13:14:09.161Z,3.43
2022-08-20T13:16:47.039Z,2.77
2022-08-20T13:19:23.923Z,3.27
2022-08-20T13:22:19.320Z,3.07
2022-08-20T13:25:00.976Z,2.40
2022-08-20T13:27:46.705Z,2.90
2022-08-20T13:31:00.525Z,2.67
2022-08-20T13:33:54.990Z,2.00
2022-08-20T13:36:25.332Z,2.40
2022-08-20T13:38:52.914Z,2.03
2022-08-20T13:41:22.579Z,2.60
2022-08-20T13:43:58.693Z,2.83
2022-08-20T13:46:30.001Z,2.73
2022-08-20T13:49:18.118Z,2.60
2022-08-20T13:51:49.032Z,2.20
2022-08-20T13:57:24.985Z,2.90
2022-08-20T14:00:07.825Z,2.10
2022-08-20T14:02:46.058Z,2.43
2022-08-20T14:05:38.521Z,3.20
2022-08-20T14:08:09.974Z,2.27
2022-08-20T14:10:44.720Z,3.60
2022-08-20T14:13:16.781Z,2.13
2022-08-20T14:15:44.502Z,2.83
2022-08-20T14:18:32.126Z,2.53
2022-08-20T14:21:15.569Z,2.47
2022-08-20T14:24:07.415Z,2.83
2022-08-20T14:26:59.967Z,2.80
2022-08-20T14:29:27.637Z,3.30
2022-08-20T14:32:02.487Z,2.87
2022-08-20T14:35:17.598Z,3.70
2022-08-20T14:37:50.732Z,3.70
2022-08-20T14:40:21.339Z,3.70
2022-08-20T14:43:23.298Z,4.60
2022-08-20T14:49:22.357Z,3.27
2022-08-20T14:52:04.212Z,4.60
2022-08-20T14:55:09.941Z,4.30
2022-08-20T15:03:17.460Z,3.70
2022-08-20T15:06:00.530Z,4.60
2022-08-20T15:08:41.990Z,3.93
2022-08-20T15:11:28.078Z,3.97
2022-08-20T15:14:01.731Z,4.40
2022-08-20T15:16:29.889Z,4.37
2022-08-20T15:19:04.989Z,4.07
2022-08-20T15:25:36.129Z,3.67
2022-08-20T15:32:17.695Z,4.20
2022-08-20T15:38:49.094Z,5.10
2022-08-20T15:46:13.345Z,4.23
2022-08-20T15:52:31.836Z,4.50
2022-08-20T15:55:12.063Z,4.93
2022-08-20T15:57:48.884Z,5.57
2022-08-20T16:00:20.255Z,4.80
2022-08-20T16:02:58.754Z,5.20
2022-08-20T16:05:53.185Z,3.97
2022-08-20T16:08:46.395Z,5.30
2022-08-20T16:11:21.006Z,5.50
2022-08-20T16:17:01.200Z,5.37
2022-08-20T16:19:35.143Z,4.57
2022-08-20T16:22:04.712Z,5.27
2022-08-20T16:24:32.355Z,5.70
2022-08-20T16:30:42.013Z,6.97
2022-08-20T16:33:41.700Z,5.27
2022-08-20T16:36:29.750Z,5.97
2022-08-20T16:39:05.343Z,6.37
2022-08-20T16:41:37.383Z,6.43
2022-08-20T16:44:09.111Z,5.60
2022-08-20T16:46:39.479Z,5.20
2022-08-20T16:49:32.916Z,5.53
2022-08-20T16:52:49.116Z,5.00
2022-08-20T16:55:16.750Z,5.70
2022-08-20T16:57:47.784Z,5.33
2022-08-20T17:00:15.814Z,7.20
2022-08-20T17:03:08.988Z,6.00
2022-08-20T17:05:38.980Z,6.47
2022-08-20T17:08:19.539Z,6.37
2022-08-20T17:11:50.926Z,5.17
2022-08-20T17:14:20.472Z,7.93
2022-08-20T17:16:51.854Z,6.87
2022-08-20T17:19:37.147Z,7.40
2022-08-20T17:22:12.092Z,10.57
2022-08-20T17:24:40.284Z,8.87
2022-08-20T17:27:11.320Z,9.13
2022-08-20T17:29:48.864Z,9.60
2022-08-20T17:32:17.653Z,9.40
2022-08-20T17:34:47.539Z,8.77
2022-08-20T17:37:22.677Z,9.00
2022-08-20T17:39:52.666Z,8.17
2022-08-20T17:42:21.541Z,9.90
2022-08-20T17:44:59.048Z,9.10
2022-08-20T17:47:31.427Z,10.63
2022-08-20T17:50:09.695Z,8.00
2022-08-20T17:52:39.732Z,6.10
2022-08-20T17:55:08.703Z,5.23
2022-08-20T17:57:38.160Z,5.40
2022-08-20T18:00:08.340Z,5.07
2022-08-20T18:02:37.291Z,4.07
2022-08-20T18:05:08.958Z,4.20
2022-08-20T18:07:41.246Z,5.03
2022-08-20T18:10:11.853Z,3.70
2022-08-20T18:12:47.701Z,3.90
2022-08-20T18:15:14.846Z,3.90
2022-08-20T18:17:54.586Z,4.20
2022-08-20T18:20:21.513Z,4.10
2022-08-20T18:22:52.504Z,4.20
2022-08-20T18:25:26.794Z,3.47
2022-08-20T18:27:56.478Z,3.97
2022-08-20T18:30:24.779Z,3.63
2022-08-20T18:33:01.258Z,4.27
2022-08-20T18:35:36.289Z,4.57
2022-08-20T18:38:22.075Z,3.83
2022-08-20T18:40:52.117Z,3.80
2022-08-20T18:43:30.715Z,3.90
2022-08-20T18:46:09.037Z,3.93
2022-08-20T18:48:35.875Z,3.90
2022-08-20T18:51:07.873Z,4.47
2022-08-20T18:53:34.782Z,5.00
2022-08-20T18:56:06.839Z,4.33
2022-08-20T18:58:47.232Z,3.83
2022-08-20T19:01:16.089Z,3.80
2022-08-20T19:03:48.984Z,3.80
2022-08-20T19:06:15.763Z,4.40
2022-08-20T19:08:49.363Z,5.43
2022-08-20T19:11:28.526Z,4.47
2022-08-20T19:14:11.015Z,4.50
2022-08-20T19:16:43.894Z,4.00
2022-08-20T19:19:22.116Z,4.00
2022-08-20T19:21:49.288Z,3.80
2022-08-20T19:24:18.658Z,4.10
2022-08-20T19:26:49.163Z,5.00
2022-08-20T19:29:17.553Z,5.90
2022-08-20T19:31:44.707Z,4.80
2022-08-20T19:34:21.845Z,5.33
2022-08-20T19:37:04.534Z,5.80
2022-08-20T19:39:48.089Z,6.30
2022-08-20T19:42:18.721Z,5.63
2022-08-20T19:44:48.217Z,6.73
2022-08-20T19:47:20.375Z,7.33
2022-08-20T19:50:05.646Z,6.60
2022-08-20T19:52:33.389Z,6.67
2022-08-20T19:55:03.766Z,6.97
2022-08-20T19:57:31.106Z,6.70
2022-08-20T19:59:59.574Z,7.43
2022-08-20T20:02:28.487Z,8.37
2022-08-20T20:04:57.876Z,7.90
2022-08-20T20:07:27.371Z,7.07
2022-08-20T20:09:55.876Z,8.37
2022-08-20T20:12:23.650Z,8.60
2022-08-20T20:14:52.229Z,9.53
2022-08-20T20:17:23.106Z,9.13
2022-08-20T20:19:53.477Z,9.13
2022-08-20T20:22:25.536Z,8.57
2022-08-20T20:25:04.591Z,8.30
2022-08-20T20:27:32.185Z,8.73
2022-08-20T20:30:00.241Z,8.87
2022-08-20T20:32:27.878Z,9.67
2022-08-20T20:34:56.315Z,9.50
2022-08-20T20:37:42.649Z,9.20
2022-08-20T20:40:25.363Z,11.03
2022-08-20T20:43:04.214Z,11.30
2022-08-20T20:45:35.664Z,10.00
2022-08-20T20:48:11.725Z,10.53
2022-08-20T20:50:38.660Z,9.50
2022-08-20T20:53:05.619Z,9.60
2022-08-20T20:55:33.711Z,9.90
2022-08-20T20:58:02.780Z,11.93
2022-08-20T21:00:32.751Z,9.57
2022-08-20T21:03:00.292Z,9.27
2022-08-20T21:05:30.608Z,9.03
2022-08-20T21:07:59.833Z,10.90
2022-08-20T21:10:32.185Z,9.67
2022-08-20T21:12:59.604Z,9.77
2022-08-20T21:15:26.997Z,11.00
2022-08-20T21:17:54.032Z,10.90
2022-08-20T21:20:21.356Z,14.00
2022-08-20T21:22:49.462Z,13.10
2022-08-20T21:25:18.709Z,12.30
2022-08-20T21:27:47.077Z,13.60
2022-08-20T21:30:14.943Z,14.70
2022-08-20T21:32:42.054Z,14.60
2022-08-20T21:35:09.833Z,14.73
2022-08-20T21:37:36.961Z,16.30
2022-08-20T21:40:04.894Z,14.07
2022-08-20T21:42:32.113Z,15.47
2022-08-20T21:45:04.727Z,14.50
2022-08-20T21:47:31.637Z,16.23
2022-08-20T21:49:58.391Z,13.80
2022-08-20T21:52:25.230Z,14.67
2022-08-20T21:54:52.507Z,14.83
2022-08-20T21:57:20.910Z,14.13
2022-08-20T21:59:47.958Z,15.17
2022-08-20T22:02:15.498Z,14.40
2022-08-20T22:04:42.202Z,13.77
2022-08-20T22:07:09.181Z,14.30
2022-08-20T22:09:38.349Z,15.53
2022-08-20T22:12:14.796Z,14.60
2022-08-20T22:14:41.902Z,16.40
2022-08-20T22:17:08.791Z,15.20
2022-08-20T22:19:35.571Z,15.60
2022-08-20T22:22:02.399Z,17.00
2022-08-20T22:24:29.602Z,16.13
2022-08-20T22:26:56.422Z,17.30
2022-08-20T22:29:23.662Z,17.50
2022-08-20T22:31:50.279Z,19.37
2022-08-20T22:34:18.399Z,20.60
2022-08-20T22:36:45.133Z,18.80
2022-08-20T22:39:11.829Z,20.60
2022-08-20T22:41:38.610Z,19.00
2022-08-20T22:44:05.650Z,19.50
2022-08-20T22:46:34.893Z,17.90
2022-08-20T22:49:02.366Z,19.87
2022-08-20T22:51:34.979Z,20.40
2022-08-20T22:54:02.763Z,22.07
2022-08-20T22:56:29.856Z,20.10
2022-08-20T22:58:59.107Z,20.30
2022-08-20T23:01:26.733Z,20.73
2022-08-20T23:03:53.527Z,21.83
2022-08-20T23:06:20.223Z,23.67
2022-08-20T23:08:46.885Z,22.70
2022-08-20T23:11:13.729Z,23.27
2022-08-20T23:13:40.508Z,22.37
2022-08-20T23:16:07.437Z,21.60
2022-08-20T23:18:34.493Z,20.27
2022-08-20T23:21:01.183Z,21.80
2022-08-20T23:23:27.831Z,22.07
2022-08-20T23:25:54.766Z,21.50
2022-08-20T23:28:22.416Z,21.00
2022-08-20T23:30:49.279Z,20.87
2022-08-20T23:33:16.274Z,22.63
2022-08-20T23:35:43.854Z,21.70
2022-08-20T23:38:10.921Z,19.53
2022-08-20T23:40:37.644Z,19.43
2022-08-20T23:43:05.044Z,21.03
2022-08-20T23:45:32.127Z,19.20
2022-08-20T23:47:59.140Z,18.50
2022-08-20T23:50:27.104Z,19.60
2022-08-20T23:52:54.319Z,19.57
2022-08-20T23:55:22.730Z,20.53
2022-08-20T23:57:50.311Z,19.37
